sensor_id;sensor_type;location;lat;lon;timestamp;temperature;humidity
2439;DHT22;14509;47.992;7.848;2023-05-10T00:01:05;18.60;68.90
2439;DHT22;14509;47.992;7.848;2023-05-10T00:03:08;18.70;68.90
2439;DHT22;14509;47.992;7.848;2023-05-10T00:05:10;18.80;68.90
2439;DHT22;14509;47.992;7.848;2023-05-10T00:07:13;18.70;68.70
2439;DHT22;14509;47.992;7.848;2023-05-10T00:09:16;18.60;68.60
2439;DHT22;14509;47.992;7.848;2023-05-10T00:11:18;18.70;68.60
2439;DHT22;14509;47.992;7.848;2023-05-10T00:13:21;18.70;68.60
2439;DHT22;14509;47.992;7.848;2023-05-10T00:15:23;18.70;68.50
2439;DHT22;14509;47.992;7.848;2023-05-10T00:17:25;18.70;67.60
2439;DHT22;14509;47.992;7.848;2023-05-10T00:19:27;18.70;67.60
2439;DHT22;14509;47.992;7.848;2023-05-10T00:21:28;18.70;67.70
2439;DHT22;14509;47.992;7.848;2023-05-10T00:23:32;18.70;67.90
2439;DHT22;14509;47.992;7.848;2023-05-10T00:25:33;18.70;67.60
2439;DHT22;14509;47.992;7.848;2023-05-10T00:27:35;18.70;67.70
2439;DHT22;14509;47.992;7.848;2023-05-10T00:29:37;18.70;67.60
2439;DHT22;14509;47.992;7.848;2023-05-10T00:31:39;18.60;67.60
2439;DHT22;14509;47.992;7.848;2023-05-10T00:33:41;18.70;67.80
2439;DHT22;14509;47.992;7.848;2023-05-10T00:35:43;18.70;67.30
2439;DHT22;14509;47.992;7.848;2023-05-10T00:37:45;18.70;67.10
2439;DHT22;14509;47.992;7.848;2023-05-10T00:39:48;18.70;66.90
2439;DHT22;14509;47.992;7.848;2023-05-10T00:41:50;18.70;66.40
2439;DHT22;14509;47.992;7.848;2023-05-10T00:43:52;18.60;66.60
2439;DHT22;14509;47.992;7.848;2023-05-10T00:45:54;18.60;66.90
2439;DHT22;14509;47.992;7.848;2023-05-10T00:47:56;18.60;66.90
2439;DHT22;14509;47.992;7.848;2023-05-10T00:50:00;18.50;67.00
2439;DHT22;14509;47.992;7.848;2023-05-10T00:52:03;18.50;67.10
2439;DHT22;14509;47.992;7.848;2023-05-10T00:54:05;18.50;67.00
2439;DHT22;14509;47.992;7.848;2023-05-10T00:56:08;18.40;66.80
2439;DHT22;14509;47.992;7.848;2023-05-10T00:58:11;18.50;67.20
2439;DHT22;14509;47.992;7.848;2023-05-10T01:00:14;18.40;66.30
2439;DHT22;14509;47.992;7.848;2023-05-10T01:02:18;18.40;66.30
2439;DHT22;14509;47.992;7.848;2023-05-10T01:04:20;18.40;66.50
2439;DHT22;14509;47.992;7.848;2023-05-10T01:06:26;18.90;67.00
2439;DHT22;14509;47.992;7.848;2023-05-10T01:08:28;18.40;66.80
2439;DHT22;14509;47.992;7.848;2023-05-10T01:10:31;18.40;66.60
2439;DHT22;14509;47.992;7.848;2023-05-10T01:12:35;18.40;66.90
2439;DHT22;14509;47.992;7.848;2023-05-10T01:14:40;18.40;66.80
2439;DHT22;14509;47.992;7.848;2023-05-10T01:16:42;18.70;67.00
2439;DHT22;14509;47.992;7.848;2023-05-10T01:18:45;18.50;66.80
2439;DHT22;14509;47.992;7.848;2023-05-10T01:21:02;18.50;66.70
2439;DHT22;14509;47.992;7.848;2023-05-10T01:23:23;18.50;66.60
2439;DHT22;14509;47.992;7.848;2023-05-10T01:25:43;18.50;66.80
2439;DHT22;14509;47.992;7.848;2023-05-10T01:28:17;18.50;66.80
2439;DHT22;14509;47.992;7.848;2023-05-10T01:30:53;18.60;67.00
2439;DHT22;14509;47.992;7.848;2023-05-10T01:33:09;18.60;67.10
2439;DHT22;14509;47.992;7.848;2023-05-10T01:35:17;18.60;67.10
2439;DHT22;14509;47.992;7.848;2023-05-10T01:37:25;18.50;67.00
2439;DHT22;14509;47.992;7.848;2023-05-10T01:39:36;18.50;67.00
2439;DHT22;14509;47.992;7.848;2023-05-10T01:41:45;18.40;67.00
2439;DHT22;14509;47.992;7.848;2023-05-10T01:43:57;18.30;67.60
2439;DHT22;14509;47.992;7.848;2023-05-10T01:46:37;18.30;67.80
2439;DHT22;14509;47.992;7.848;2023-05-10T01:49:21;18.20;68.00
2439;DHT22;14509;47.992;7.848;2023-05-10T01:51:27;18.20;68.20
2439;DHT22;14509;47.992;7.848;2023-05-10T01:53:32;18.10;68.30
2439;DHT22;14509;47.992;7.848;2023-05-10T01:55:42;18.10;68.50
2439;DHT22;14509;47.992;7.848;2023-05-10T01:57:46;18.10;68.60
2439;DHT22;14509;47.992;7.848;2023-05-10T01:59:50;18.00;68.60
2439;DHT22;14509;47.992;7.848;2023-05-10T02:01:53;18.10;68.60
2439;DHT22;14509;47.992;7.848;2023-05-10T02:03:56;18.00;68.70
2439;DHT22;14509;47.992;7.848;2023-05-10T02:06:00;17.90;68.60
2439;DHT22;14509;47.992;7.848;2023-05-10T02:08:05;18.20;69.10
2439;DHT22;14509;47.992;7.848;2023-05-10T02:10:11;18.50;69.50
2439;DHT22;14509;47.992;7.848;2023-05-10T02:12:18;17.90;69.00
2439;DHT22;14509;47.992;7.848;2023-05-10T02:14:22;17.90;68.90
2439;DHT22;14509;47.992;7.848;2023-05-10T02:16:26;17.90;69.20
2439;DHT22;14509;47.992;7.848;2023-05-10T02:18:31;17.90;69.20
2439;DHT22;14509;47.992;7.848;2023-05-10T02:20:37;17.90;69.20
2439;DHT22;14509;47.992;7.848;2023-05-10T02:22:41;17.90;69.30
2439;DHT22;14509;47.992;7.848;2023-05-10T02:24:45;18.70;70.10
2439;DHT22;14509;47.992;7.848;2023-05-10T02:26:50;17.90;69.20
2439;DHT22;14509;47.992;7.848;2023-05-10T02:28:59;18.10;69.50
2439;DHT22;14509;47.992;7.848;2023-05-10T02:31:05;18.00;69.20
2439;DHT22;14509;47.992;7.848;2023-05-10T02:33:29;17.90;69.20
2439;DHT22;14509;47.992;7.848;2023-05-10T02:35:32;18.00;69.20
2439;DHT22;14509;47.992;7.848;2023-05-10T02:37:36;18.00;69.10
2439;DHT22;14509;47.992;7.848;2023-05-10T02:39:40;18.00;69.20
2439;DHT22;14509;47.992;7.848;2023-05-10T02:41:45;18.00;69.20
2439;DHT22;14509;47.992;7.848;2023-05-10T02:43:49;18.00;69.10
2439;DHT22;14509;47.992;7.848;2023-05-10T02:45:52;18.30;69.40
2439;DHT22;14509;47.992;7.848;2023-05-10T02:47:58;18.00;68.50
2439;DHT22;14509;47.992;7.848;2023-05-10T02:50:00;18.00;68.80
2439;DHT22;14509;47.992;7.848;2023-05-10T02:52:08;17.90;68.60
2439;DHT22;14509;47.992;7.848;2023-05-10T02:54:20;18.30;68.90
2439;DHT22;14509;47.992;7.848;2023-05-10T02:56:33;17.90;68.40
2439;DHT22;14509;47.992;7.848;2023-05-10T02:58:36;17.90;68.50
2439;DHT22;14509;47.992;7.848;2023-05-10T03:00:38;17.90;68.10
2439;DHT22;14509;47.992;7.848;2023-05-10T03:02:40;17.90;68.30
2439;DHT22;14509;47.992;7.848;2023-05-10T03:04:46;18.20;68.80
2439;DHT22;14509;47.992;7.848;2023-05-10T03:06:58;17.90;68.40
2439;DHT22;14509;47.992;7.848;2023-05-10T03:09:00;17.80;68.10
2439;DHT22;14509;47.992;7.848;2023-05-10T03:11:24;18.00;68.20
2439;DHT22;14509;47.992;7.848;2023-05-10T03:13:39;17.90;67.90
2439;DHT22;14509;47.992;7.848;2023-05-10T03:15:51;17.90;67.90
2439;DHT22;14509;47.992;7.848;2023-05-10T03:18:01;17.90;67.70
2439;DHT22;14509;47.992;7.848;2023-05-10T03:20:09;17.90;67.90
2439;DHT22;14509;47.992;7.848;2023-05-10T03:22:13;17.80;67.80
2439;DHT22;14509;47.992;7.848;2023-05-10T03:24:21;17.80;67.70
2439;DHT22;14509;47.992;7.848;2023-05-10T03:26:26;17.80;67.80
2439;DHT22;14509;47.992;7.848;2023-05-10T03:28:39;17.80;68.00
2439;DHT22;14509;47.992;7.848;2023-05-10T03:30:42;17.70;67.80
2439;DHT22;14509;47.992;7.848;2023-05-10T03:32:46;17.70;67.80
2439;DHT22;14509;47.992;7.848;2023-05-10T03:34:51;17.70;67.90
2439;DHT22;14509;47.992;7.848;2023-05-10T03:36:53;17.70;68.80
2439;DHT22;14509;47.992;7.848;2023-05-10T03:38:58;17.70;68.20
2439;DHT22;14509;47.992;7.848;2023-05-10T03:41:01;17.60;68.00
2439;DHT22;14509;47.992;7.848;2023-05-10T03:43:03;17.70;68.10
2439;DHT22;14509;47.992;7.848;2023-05-10T03:45:10;17.70;68.20
2439;DHT22;14509;47.992;7.848;2023-05-10T03:47:12;17.80;68.30
2439;DHT22;14509;47.992;7.848;2023-05-10T03:49:14;17.80;68.10
2439;DHT22;14509;47.992;7.848;2023-05-10T03:51:18;17.80;68.10
2439;DHT22;14509;47.992;7.848;2023-05-10T03:53:23;17.80;67.60
2439;DHT22;14509;47.992;7.848;2023-05-10T03:55:39;17.70;67.70
2439;DHT22;14509;47.992;7.848;2023-05-10T03:57:49;17.70;67.80
2439;DHT22;14509;47.992;7.848;2023-05-10T03:59:51;17.80;67.90
2439;DHT22;14509;47.992;7.848;2023-05-10T04:02:01;18.20;68.10
2439;DHT22;14509;47.992;7.848;2023-05-10T04:04:05;17.80;67.60
2439;DHT22;14509;47.992;7.848;2023-05-10T04:06:10;17.80;67.50
2439;DHT22;14509;47.992;7.848;2023-05-10T04:08:18;17.70;67.50
2439;DHT22;14509;47.992;7.848;2023-05-10T04:10:20;17.70;67.50
2439;DHT22;14509;47.992;7.848;2023-05-10T04:12:22;17.70;67.60
2439;DHT22;14509;47.992;7.848;2023-05-10T04:14:24;18.00;68.80
2439;DHT22;14509;47.992;7.848;2023-05-10T04:16:26;17.60;67.70
2439;DHT22;14509;47.992;7.848;2023-05-10T04:18:30;17.60;67.70
2439;DHT22;14509;47.992;7.848;2023-05-10T04:20:32;17.80;68.20
2439;DHT22;14509;47.992;7.848;2023-05-10T04:22:34;17.60;68.20
2439;DHT22;14509;47.992;7.848;2023-05-10T04:24:36;17.60;68.20
2439;DHT22;14509;47.992;7.848;2023-05-10T04:26:38;17.60;68.00
2439;DHT22;14509;47.992;7.848;2023-05-10T04:28:40;17.60;68.00
2439;DHT22;14509;47.992;7.848;2023-05-10T04:30:42;17.80;68.00
2439;DHT22;14509;47.992;7.848;2023-05-10T04:32:44;17.70;67.70
2439;DHT22;14509;47.992;7.848;2023-05-10T04:34:50;17.90;67.70
2439;DHT22;14509;47.992;7.848;2023-05-10T04:36:52;17.70;67.60
2439;DHT22;14509;47.992;7.848;2023-05-10T04:38:54;17.60;67.50
2439;DHT22;14509;47.992;7.848;2023-05-10T04:41:04;17.60;67.80
2439;DHT22;14509;47.992;7.848;2023-05-10T04:43:06;17.70;68.10
2439;DHT22;14509;47.992;7.848;2023-05-10T04:45:11;17.70;68.00
2439;DHT22;14509;47.992;7.848;2023-05-10T04:47:15;17.80;68.30
2439;DHT22;14509;47.992;7.848;2023-05-10T04:49:17;17.80;67.90
2439;DHT22;14509;47.992;7.848;2023-05-10T04:51:21;17.80;67.80
2439;DHT22;14509;47.992;7.848;2023-05-10T04:53:22;17.80;67.60
2439;DHT22;14509;47.992;7.848;2023-05-10T04:55:24;17.80;67.70
2439;DHT22;14509;47.992;7.848;2023-05-10T04:57:27;17.80;67.50
2439;DHT22;14509;47.992;7.848;2023-05-10T04:59:28;17.80;67.50
2439;DHT22;14509;47.992;7.848;2023-05-10T05:01:30;17.90;67.40
2439;DHT22;14509;47.992;7.848;2023-05-10T05:03:32;17.90;67.40
2439;DHT22;14509;47.992;7.848;2023-05-10T05:05:34;18.00;67.40
2439;DHT22;14509;47.992;7.848;2023-05-10T05:07:40;17.90;66.60
2439;DHT22;14509;47.992;7.848;2023-05-10T05:09:42;18.00;66.60
2439;DHT22;14509;47.992;7.848;2023-05-10T05:11:44;18.00;66.60
2439;DHT22;14509;47.992;7.848;2023-05-10T05:13:48;18.00;66.10
2439;DHT22;14509;47.992;7.848;2023-05-10T05:15:50;18.00;66.60
2439;DHT22;14509;47.992;7.848;2023-05-10T05:17:52;18.10;66.80
2439;DHT22;14509;47.992;7.848;2023-05-10T05:19:54;18.10;66.50
2439;DHT22;14509;47.992;7.848;2023-05-10T05:21:56;18.20;66.40
2439;DHT22;14509;47.992;7.848;2023-05-10T05:23:59;18.30;65.90
2439;DHT22;14509;47.992;7.848;2023-05-10T05:26:01;18.40;65.80
2439;DHT22;14509;47.992;7.848;2023-05-10T05:28:03;18.40;65.00
2439;DHT22;14509;47.992;7.848;2023-05-10T05:30:06;18.50;65.00
2439;DHT22;14509;47.992;7.848;2023-05-10T05:32:08;18.60;64.70
2439;DHT22;14509;47.992;7.848;2023-05-10T05:34:11;18.60;64.70
2439;DHT22;14509;47.992;7.848;2023-05-10T05:36:12;18.70;64.80
2439;DHT22;14509;47.992;7.848;2023-05-10T05:38:14;18.80;64.90
2439;DHT22;14509;47.992;7.848;2023-05-10T05:40:18;18.80;64.40
2439;DHT22;14509;47.992;7.848;2023-05-10T05:42:20;18.90;64.20
2439;DHT22;14509;47.992;7.848;2023-05-10T05:44:22;18.90;63.50
2439;DHT22;14509;47.992;7.848;2023-05-10T05:46:24;18.90;63.70
2439;DHT22;14509;47.992;7.848;2023-05-10T05:48:26;18.90;63.10
2439;DHT22;14509;47.992;7.848;2023-05-10T05:50:28;19.00;63.30
2439;DHT22;14509;47.992;7.848;2023-05-10T05:52:30;19.00;63.50
2439;DHT22;14509;47.992;7.848;2023-05-10T05:54:32;18.90;62.60
2439;DHT22;14509;47.992;7.848;2023-05-10T05:56:35;18.90;62.00
2439;DHT22;14509;47.992;7.848;2023-05-10T05:58:39;18.70;62.10
2439;DHT22;14509;47.992;7.848;2023-05-10T06:00:40;18.60;62.60
2439;DHT22;14509;47.992;7.848;2023-05-10T06:02:42;18.40;62.90
2439;DHT22;14509;47.992;7.848;2023-05-10T06:04:44;18.50;63.80
2439;DHT22;14509;47.992;7.848;2023-05-10T06:06:46;18.20;64.60
2439;DHT22;14509;47.992;7.848;2023-05-10T06:08:48;18.20;65.00
2439;DHT22;14509;47.992;7.848;2023-05-10T06:10:50;18.10;65.20
2439;DHT22;14509;47.992;7.848;2023-05-10T06:12:53;18.10;65.60
2439;DHT22;14509;47.992;7.848;2023-05-10T06:14:55;18.00;65.00
2439;DHT22;14509;47.992;7.848;2023-05-10T06:16:57;17.90;65.50
2439;DHT22;14509;47.992;7.848;2023-05-10T06:19:00;17.80;66.30
2439;DHT22;14509;47.992;7.848;2023-05-10T06:21:02;17.90;66.00
2439;DHT22;14509;47.992;7.848;2023-05-10T06:23:03;17.90;66.30
2439;DHT22;14509;47.992;7.848;2023-05-10T06:25:06;17.90;65.90
2439;DHT22;14509;47.992;7.848;2023-05-10T06:27:08;17.90;65.90
2439;DHT22;14509;47.992;7.848;2023-05-10T06:29:12;18.00;65.70
2439;DHT22;14509;47.992;7.848;2023-05-10T06:31:15;18.00;65.40
2439;DHT22;14509;47.992;7.848;2023-05-10T06:33:18;18.00;65.70
2439;DHT22;14509;47.992;7.848;2023-05-10T06:35:20;18.00;65.90
2439;DHT22;14509;47.992;7.848;2023-05-10T06:37:22;18.10;65.70
2439;DHT22;14509;47.992;7.848;2023-05-10T06:39:24;18.10;65.30
2439;DHT22;14509;47.992;7.848;2023-05-10T06:41:25;18.00;65.30
2439;DHT22;14509;47.992;7.848;2023-05-10T06:43:27;18.10;65.40
2439;DHT22;14509;47.992;7.848;2023-05-10T06:45:31;18.20;65.80
2439;DHT22;14509;47.992;7.848;2023-05-10T06:47:33;18.30;65.70
2439;DHT22;14509;47.992;7.848;2023-05-10T06:49:35;18.40;65.40
2439;DHT22;14509;47.992;7.848;2023-05-10T06:51:37;18.50;64.70
2439;DHT22;14509;47.992;7.848;2023-05-10T06:53:39;18.50;64.50
2439;DHT22;14509;47.992;7.848;2023-05-10T06:55:41;18.60;64.60
2439;DHT22;14509;47.992;7.848;2023-05-10T06:57:43;18.60;63.80
2439;DHT22;14509;47.992;7.848;2023-05-10T06:59:45;18.70;63.10
2439;DHT22;14509;47.992;7.848;2023-05-10T07:01:48;18.70;63.10
2439;DHT22;14509;47.992;7.848;2023-05-10T07:03:50;18.70;63.80
2439;DHT22;14509;47.992;7.848;2023-05-10T07:05:51;18.70;62.90
2439;DHT22;14509;47.992;7.848;2023-05-10T07:07:53;18.90;63.80
2439;DHT22;14509;47.992;7.848;2023-05-10T07:09:55;19.00;63.90
2439;DHT22;14509;47.992;7.848;2023-05-10T07:11:58;19.10;63.80
2439;DHT22;14509;47.992;7.848;2023-05-10T07:14:00;19.20;62.70
2439;DHT22;14509;47.992;7.848;2023-05-10T07:16:02;19.30;62.10
2439;DHT22;14509;47.992;7.848;2023-05-10T07:18:06;19.40;62.20
2439;DHT22;14509;47.992;7.848;2023-05-10T07:20:08;19.60;61.80
2439;DHT22;14509;47.992;7.848;2023-05-10T07:22:10;19.80;61.60
2439;DHT22;14509;47.992;7.848;2023-05-10T07:24:12;19.90;61.70
2439;DHT22;14509;47.992;7.848;2023-05-10T07:26:14;20.00;59.40
2439;DHT22;14509;47.992;7.848;2023-05-10T07:28:16;20.10;59.50
2439;DHT22;14509;47.992;7.848;2023-05-10T07:30:18;20.20;57.00
2439;DHT22;14509;47.992;7.848;2023-05-10T07:32:20;20.20;58.40
2439;DHT22;14509;47.992;7.848;2023-05-10T07:34:24;20.20;59.00
2439;DHT22;14509;47.992;7.848;2023-05-10T07:36:26;20.20;58.50
2439;DHT22;14509;47.992;7.848;2023-05-10T07:38:28;20.20;58.00
2439;DHT22;14509;47.992;7.848;2023-05-10T07:40:31;20.10;58.50
2439;DHT22;14509;47.992;7.848;2023-05-10T07:42:33;20.20;59.00
2439;DHT22;14509;47.992;7.848;2023-05-10T07:44:35;20.40;58.20
2439;DHT22;14509;47.992;7.848;2023-05-10T07:46:37;20.40;58.30
2439;DHT22;14509;47.992;7.848;2023-05-10T07:48:39;20.60;57.80
2439;DHT22;14509;47.992;7.848;2023-05-10T07:50:42;20.60;57.30
2439;DHT22;14509;47.992;7.848;2023-05-10T07:52:44;20.90;57.30
2439;DHT22;14509;47.992;7.848;2023-05-10T07:54:46;20.90;56.30
2439;DHT22;14509;47.992;7.848;2023-05-10T07:56:48;21.00;55.40
2439;DHT22;14509;47.992;7.848;2023-05-10T07:58:50;21.10;56.00
2439;DHT22;14509;47.992;7.848;2023-05-10T08:00:52;21.20;56.70
2439;DHT22;14509;47.992;7.848;2023-05-10T08:02:54;21.30;55.60
2439;DHT22;14509;47.992;7.848;2023-05-10T08:04:56;21.40;56.20
2439;DHT22;14509;47.992;7.848;2023-05-10T08:06:59;21.40;54.50
2439;DHT22;14509;47.992;7.848;2023-05-10T08:09:01;21.50;55.40
2439;DHT22;14509;47.992;7.848;2023-05-10T08:11:03;21.60;56.10
2439;DHT22;14509;47.992;7.848;2023-05-10T08:13:05;21.70;54.90
2439;DHT22;14509;47.992;7.848;2023-05-10T08:15:08;22.00;55.60
2439;DHT22;14509;47.992;7.848;2023-05-10T08:17:10;22.10;53.70
2439;DHT22;14509;47.992;7.848;2023-05-10T08:19:12;22.50;54.10
2439;DHT22;14509;47.992;7.848;2023-05-10T08:21:14;22.50;55.00
2439;DHT22;14509;47.992;7.848;2023-05-10T08:23:18;22.70;53.20
2439;DHT22;14509;47.992;7.848;2023-05-10T08:25:20;22.90;52.60
2439;DHT22;14509;47.992;7.848;2023-05-10T08:27:21;23.10;52.00
2439;DHT22;14509;47.992;7.848;2023-05-10T08:29:23;23.00;51.10
2439;DHT22;14509;47.992;7.848;2023-05-10T08:31:25;23.00;51.20
2439;DHT22;14509;47.992;7.848;2023-05-10T08:33:27;23.00;50.50
2439;DHT22;14509;47.992;7.848;2023-05-10T08:35:29;23.60;51.20
2439;DHT22;14509;47.992;7.848;2023-05-10T08:37:31;23.00;50.50
2439;DHT22;14509;47.992;7.848;2023-05-10T08:39:35;23.00;52.30
2439;DHT22;14509;47.992;7.848;2023-05-10T08:41:39;22.90;51.80
2439;DHT22;14509;47.992;7.848;2023-05-10T08:43:41;22.80;51.40
2439;DHT22;14509;47.992;7.848;2023-05-10T08:45:47;22.80;50.70
2439;DHT22;14509;47.992;7.848;2023-05-10T08:47:52;23.00;52.50
2439;DHT22;14509;47.992;7.848;2023-05-10T08:49:54;22.80;49.70
2439;DHT22;14509;47.992;7.848;2023-05-10T08:51:57;22.60;50.10
2439;DHT22;14509;47.992;7.848;2023-05-10T08:54:02;22.60;49.50
2439;DHT22;14509;47.992;7.848;2023-05-10T08:56:06;22.40;49.90
2439;DHT22;14509;47.992;7.848;2023-05-10T08:58:09;22.50;48.90
2439;DHT22;14509;47.992;7.848;2023-05-10T09:00:12;22.60;50.70
2439;DHT22;14509;47.992;7.848;2023-05-10T09:02:15;22.70;49.00
2439;DHT22;14509;47.992;7.848;2023-05-10T09:04:17;22.80;48.30
2439;DHT22;14509;47.992;7.848;2023-05-10T09:06:20;23.00;47.70
2439;DHT22;14509;47.992;7.848;2023-05-10T09:08:23;23.50;47.30
2439;DHT22;14509;47.992;7.848;2023-05-10T09:10:27;23.40;50.90
2439;DHT22;14509;47.992;7.848;2023-05-10T09:12:31;23.50;47.60
2439;DHT22;14509;47.992;7.848;2023-05-10T09:14:34;23.60;47.60
2439;DHT22;14509;47.992;7.848;2023-05-10T09:16:37;23.80;46.00
2439;DHT22;14509;47.992;7.848;2023-05-10T09:18:39;23.80;43.40
2439;DHT22;14509;47.992;7.848;2023-05-10T09:20:41;23.60;43.90
2439;DHT22;14509;47.992;7.848;2023-05-10T09:22:43;23.50;44.80
2439;DHT22;14509;47.992;7.848;2023-05-10T09:24:45;23.40;45.50
2439;DHT22;14509;47.992;7.848;2023-05-10T09:26:47;23.30;46.80
2439;DHT22;14509;47.992;7.848;2023-05-10T09:28:52;23.20;46.60
2439;DHT22;14509;47.992;7.848;2023-05-10T09:30:54;23.30;48.70
2439;DHT22;14509;47.992;7.848;2023-05-10T09:32:57;23.30;47.70
2439;DHT22;14509;47.992;7.848;2023-05-10T09:35:06;23.50;47.80
2439;DHT22;14509;47.992;7.848;2023-05-10T09:37:08;23.60;46.60
2439;DHT22;14509;47.992;7.848;2023-05-10T09:39:10;23.60;43.70
2439;DHT22;14509;47.992;7.848;2023-05-10T09:41:16;23.60;43.80
2439;DHT22;14509;47.992;7.848;2023-05-10T09:43:18;23.60;43.70
2439;DHT22;14509;47.992;7.848;2023-05-10T09:45:22;23.70;45.30
2439;DHT22;14509;47.992;7.848;2023-05-10T09:47:25;23.70;42.90
2439;DHT22;14509;47.992;7.848;2023-05-10T09:49:28;23.70;42.70
2439;DHT22;14509;47.992;7.848;2023-05-10T09:51:30;23.70;42.50
2439;DHT22;14509;47.992;7.848;2023-05-10T09:53:33;23.70;43.50
2439;DHT22;14509;47.992;7.848;2023-05-10T09:55:39;23.80;41.10
2439;DHT22;14509;47.992;7.848;2023-05-10T09:57:42;23.60;42.10
2439;DHT22;14509;47.992;7.848;2023-05-10T09:59:43;23.70;43.40
2439;DHT22;14509;47.992;7.848;2023-05-10T10:01:51;24.10;42.10
2439;DHT22;14509;47.992;7.848;2023-05-10T10:03:53;24.00;42.60
2439;DHT22;14509;47.992;7.848;2023-05-10T10:05:58;24.10;42.50
2439;DHT22;14509;47.992;7.848;2023-05-10T10:08:01;24.10;39.60
2439;DHT22;14509;47.992;7.848;2023-05-10T10:10:04;24.30;40.90
2439;DHT22;14509;47.992;7.848;2023-05-10T10:12:06;24.00;38.30
2439;DHT22;14509;47.992;7.848;2023-05-10T10:14:09;24.00;37.60
2439;DHT22;14509;47.992;7.848;2023-05-10T10:16:10;24.00;38.50
2439;DHT22;14509;47.992;7.848;2023-05-10T10:18:14;24.10;37.70
2439;DHT22;14509;47.992;7.848;2023-05-10T10:20:16;24.40;36.60
2439;DHT22;14509;47.992;7.848;2023-05-10T10:22:18;24.10;36.30
2439;DHT22;14509;47.992;7.848;2023-05-10T10:24:20;24.10;36.20
2439;DHT22;14509;47.992;7.848;2023-05-10T10:26:22;24.10;36.50
2439;DHT22;14509;47.992;7.848;2023-05-10T10:28:32;24.10;36.50
2439;DHT22;14509;47.992;7.848;2023-05-10T10:30:41;24.10;36.10
2439;DHT22;14509;47.992;7.848;2023-05-10T10:33:06;24.20;35.60
2439;DHT22;14509;47.992;7.848;2023-05-10T10:35:12;24.20;36.00
2439;DHT22;14509;47.992;7.848;2023-05-10T10:37:14;24.40;35.30
2439;DHT22;14509;47.992;7.848;2023-05-10T10:39:16;24.50;33.40
2439;DHT22;14509;47.992;7.848;2023-05-10T10:41:28;24.80;33.30
2439;DHT22;14509;47.992;7.848;2023-05-10T10:43:30;25.00;32.90
2439;DHT22;14509;47.992;7.848;2023-05-10T10:45:32;25.00;33.30
2439;DHT22;14509;47.992;7.848;2023-05-10T10:47:34;25.00;32.40
2439;DHT22;14509;47.992;7.848;2023-05-10T10:49:42;24.90;32.10
2439;DHT22;14509;47.992;7.848;2023-05-10T10:54:33;24.80;33.20
2439;DHT22;14509;47.992;7.848;2023-05-10T10:56:36;24.90;33.40
2439;DHT22;14509;47.992;7.848;2023-05-10T10:58:38;24.90;33.50
2439;DHT22;14509;47.992;7.848;2023-05-10T11:00:40;24.70;33.50
2439;DHT22;14509;47.992;7.848;2023-05-10T11:02:45;24.80;33.70
2439;DHT22;14509;47.992;7.848;2023-05-10T11:04:49;24.80;33.90
2439;DHT22;14509;47.992;7.848;2023-05-10T11:07:18;25.00;33.90
2439;DHT22;14509;47.992;7.848;2023-05-10T11:09:24;25.20;34.00
2439;DHT22;14509;47.992;7.848;2023-05-10T11:11:26;25.80;34.30
2439;DHT22;14509;47.992;7.848;2023-05-10T11:13:29;25.50;32.50
2439;DHT22;14509;47.992;7.848;2023-05-10T11:15:32;25.60;32.50
2439;DHT22;14509;47.992;7.848;2023-05-10T11:17:35;25.60;32.70
2439;DHT22;14509;47.992;7.848;2023-05-10T11:19:37;25.60;32.40
2439;DHT22;14509;47.992;7.848;2023-05-10T11:21:45;25.50;32.40
2439;DHT22;14509;47.992;7.848;2023-05-10T11:23:50;25.30;32.70
2439;DHT22;14509;47.992;7.848;2023-05-10T11:25:53;25.20;33.10
2439;DHT22;14509;47.992;7.848;2023-05-10T11:27:55;25.50;33.00
2439;DHT22;14509;47.992;7.848;2023-05-10T11:29:58;25.40;32.70
2439;DHT22;14509;47.992;7.848;2023-05-10T11:32:00;25.30;31.70
2439;DHT22;14509;47.992;7.848;2023-05-10T11:34:02;25.10;31.20
2439;DHT22;14509;47.992;7.848;2023-05-10T11:36:04;25.40;32.40
2439;DHT22;14509;47.992;7.848;2023-05-10T11:38:06;24.50;32.00
2439;DHT22;14509;47.992;7.848;2023-05-10T11:40:11;24.10;32.20
2439;DHT22;14509;47.992;7.848;2023-05-10T11:42:13;23.80;33.40
2439;DHT22;14509;47.992;7.848;2023-05-10T11:44:15;23.60;33.80
2439;DHT22;14509;47.992;7.848;2023-05-10T11:46:18;23.50;34.20
2439;DHT22;14509;47.992;7.848;2023-05-10T11:48:21;23.50;34.20
2439;DHT22;14509;47.992;7.848;2023-05-10T11:50:24;23.50;34.60
2439;DHT22;14509;47.992;7.848;2023-05-10T11:52:26;23.60;34.80
2439;DHT22;14509;47.992;7.848;2023-05-10T11:54:28;23.80;35.00
2439;DHT22;14509;47.992;7.848;2023-05-10T11:56:32;23.80;34.80
2439;DHT22;14509;47.992;7.848;2023-05-10T11:58:35;23.70;34.10
2439;DHT22;14509;47.992;7.848;2023-05-10T12:00:37;23.70;34.70
2439;DHT22;14509;47.992;7.848;2023-05-10T12:02:39;23.70;34.70
2439;DHT22;14509;47.992;7.848;2023-05-10T12:04:41;23.50;35.10
2439;DHT22;14509;47.992;7.848;2023-05-10T12:06:43;24.20;35.50
2439;DHT22;14509;47.992;7.848;2023-05-10T16:57:34;23.60;36.30
2439;DHT22;14509;47.992;7.848;2023-05-10T16:59:36;23.60;35.90
2439;DHT22;14509;47.992;7.848;2023-05-10T17:01:40;23.80;35.50
2439;DHT22;14509;47.992;7.848;2023-05-10T17:03:42;24.00;34.40
2439;DHT22;14509;47.992;7.848;2023-05-10T17:05:44;24.10;34.00
2439;DHT22;14509;47.992;7.848;2023-05-10T17:07:51;24.20;33.60
2439;DHT22;14509;47.992;7.848;2023-05-10T17:09:53;24.20;33.40
2439;DHT22;14509;47.992;7.848;2023-05-10T17:11:56;24.10;32.80
2439;DHT22;14509;47.992;7.848;2023-05-10T17:14:01;24.10;33.40
2439;DHT22;14509;47.992;7.848;2023-05-10T17:16:05;24.60;32.70
2439;DHT22;14509;47.992;7.848;2023-05-10T17:18:21;25.40;32.00
2439;DHT22;14509;47.992;7.848;2023-05-10T17:20:32;26.20;31.00
2439;DHT22;14509;47.992;7.848;2023-05-10T17:22:46;26.30;29.90
2439;DHT22;14509;47.992;7.848;2023-05-10T17:24:50;26.40;30.00
2439;DHT22;14509;47.992;7.848;2023-05-10T17:26:54;26.00;30.20
2439;DHT22;14509;47.992;7.848;2023-05-10T17:29:26;25.80;31.10
2439;DHT22;14509;47.992;7.848;2023-05-10T17:31:38;25.60;31.70
2439;DHT22;14509;47.992;7.848;2023-05-10T17:33:41;25.40;32.10
2439;DHT22;14509;47.992;7.848;2023-05-10T17:35:57;25.20;32.40
2439;DHT22;14509;47.992;7.848;2023-05-10T17:38:01;25.00;33.10
2439;DHT22;14509;47.992;7.848;2023-05-10T17:40:05;24.80;33.70
2439;DHT22;14509;47.992;7.848;2023-05-10T17:42:10;24.40;34.50
2439;DHT22;14509;47.992;7.848;2023-05-10T17:44:24;24.10;35.00
2439;DHT22;14509;47.992;7.848;2023-05-10T20:57:13;18.70;48.00
2439;DHT22;14509;47.992;7.848;2023-05-10T20:59:16;18.70;48.30
2439;DHT22;14509;47.992;7.848;2023-05-10T21:01:20;18.60;48.20
2439;DHT22;14509;47.992;7.848;2023-05-10T21:03:27;18.60;48.20
2439;DHT22;14509;47.992;7.848;2023-05-10T21:05:31;18.70;48.40
2439;DHT22;14509;47.992;7.848;2023-05-10T21:07:38;18.50;48.20
2439;DHT22;14509;47.992;7.848;2023-05-10T21:09:45;18.70;48.40
2439;DHT22;14509;47.992;7.848;2023-05-10T21:11:48;18.60;48.50
2439;DHT22;14509;47.992;7.848;2023-05-10T21:13:54;18.50;48.50
2439;DHT22;14509;47.992;7.848;2023-05-10T21:15:59;18.50;48.50
